METAR Data
IDs: Format: Raw Decoded Include TAF

Data at: 0514 UTC 24 Sep 2018

KITH 240456Z AUTO 08006KT 10SM CLR 09/09 A3034 RMK AO2 SLP276 T00940089 401830056
KITH 240356Z AUTO 07004KT 10SM CLR 10/09 A3033 RMK AO2 SLP272 T01000094
KITH 240256Z AUTO 06004KT 10SM CLR 11/09 A3032 RMK AO2 SLP269 T01060094 51015
KITH 240156Z 07006KT 10SM CLR 11/10 A3031 RMK AO2 SLP268 T01060100
KITH 240056Z 05003KT 10SM CLR 10/09 A3030 RMK AO2 SLP265 T01000094
KITH 232356Z 00000KT 10SM CLR 11/10 A3028 RMK AO2 SLP257 T01110100 10183 20111 53011
KITH 232256Z 00000KT 10SM CLR 15/11 A3026 RMK AO2 SLP252 T01500111
KITH 232156Z 17004KT 10SM CLR 17/11 A3025 RMK AO2 SLP244 T01670111
KITH 232056Z 00000KT 10SM FEW035 18/10 A3024 RMK AO2 SLP242 T01780100 56003
KITH 231956Z 12003KT 10SM SCT035 18/10 A3024 RMK AO2 SLP242 T01780100
KITH 231856Z VRB04KT 10SM SCT035 17/10 A3024 RMK AO2 SLP243 T01720100
KITH 231756Z VRB03KT 10SM SCT040 17/09 A3025 RMK AO2 SLP245 T01670089 10167 20061 58013
KITH 231656Z 00000KT 10SM SCT040 16/08 A3027 RMK AO2 SLP253 T01610083
KITH 231556Z 00000KT 10SM SCT030 15/07 A3028 RMK AO2 SLP256 T01500072
KITH 231456Z 00000KT 10SM FEW030 14/08 A3029 RMK AO2 SLP260 T01390083 53004
KITH 231356Z 00000KT 10SM CLR 11/09 A3028 RMK AO2 SLP258 TWR VIS SE 1 T01060089
KITH 231307Z 07004KT 2SM R32/5000VP6000FT BR CLR 08/08 A3028 RMK AO2
KITH 231256Z VRB03KT 1/2SM R32/3000VP6000FT FG CLR 07/07 A3028 RMK AO2 SLP258 T00720072
KITH 231234Z 07004KT 1/2SM R32/1800V4000FT FG CLR 07/07 A3027 RMK AO2
KITH 231220Z 08004KT 1/2SM R32/1400V1800FT FG CLR 07/06 A3027 RMK AO2
KITH 231156Z 00000KT 1/2SM R32/1800V2600FT FG CLR 06/06 A3028 RMK AO2 SLP259 T00610056 10078 20056 53008
KITH 231122Z 09003KT 1/4SM R32/2000V3000FT BR CLR 06/05 A3027 RMK AO2
KITH 231056Z VRB03KT 10SM CLR 06/05 A3027 RMK AO2 SLP254 T00560050
KITH 231030Z VRB05KT 10SM CLR 06/06 A3026 RMK AO2
KITH 230956Z AUTO 07003KT 10SM CLR 06/06 A3026 RMK AO2 SLP251 T00610056
KITH 230856Z AUTO 07003KT 10SM CLR 06/06 A3026 RMK AO2 SLP249 T00610061 52002
KITH 230756Z AUTO 00000KT 10SM CLR 07/06 A3026 RMK AO2 SLP248 T00670061
KITH 230656Z AUTO 07003KT 10SM CLR 08/07 A3025 RMK AO2 SLP247 T00780072
KITH 230556Z AUTO 08003KT 10SM CLR 08/07 A3025 RMK AO2 SLP247 T00780072 10100 20078 58002
KITH 230456Z AUTO 07004KT 10SM CLR 08/08 A3026 RMK AO2 SLP248 T00830078 402000083
KITH 230356Z AUTO 06003KT 10SM CLR 08/08 A3026 RMK AO2 SLP249 T00830078
KITH 230256Z AUTO 06003KT 10SM CLR 08/08 A3026 RMK AO2 SLP248 T00830078 58000
KITH 230156Z 09003KT 10SM CLR 08/08 A3027 RMK AO2 SLP253 T00830078
KITH 230056Z 12003KT 10SM CLR 09/08 A3027 RMK AO2 SLP252 T00940083
KITH 222356Z 00000KT 10SM CLR 10/08 A3026 RMK AO2 SLP249 T01000083 10161 20100 53006
KITH 222256Z 01004KT 10SM FEW031 12/08 A3025 RMK AO2 SLP244 T01170083
KITH 222156Z 32006KT 10SM SCT031 13/08 A3025 RMK AO2 SLP244 T01330083
KITH 222056Z 29009KT 10SM SCT031 14/08 A3024 RMK AO2 SLP241 T01390083 55003
KITH 221956Z VRB06KT 10SM BKN031 16/09 A3023 RMK AO2 SLP237 T01560094
KITH 221856Z 34009KT 10SM BKN031 15/08 A3024 RMK AO2 SLP238 T01500083
KITH 221756Z 36006KT 10SM BKN028 14/08 A3025 RMK AO2 SLP241 T01390083 10150 20122 58002